KTYR - Tyler, Texas, USA
Distance from station: WNW 10mi, 17km
Updated: Thu, 01-Dec-2022 5:53pm CST
Overcast
Overcast
 Wind from SE
Wind: SE 5 mph , 7 km/h
Temperature: 55°F , 13°C
Dew Point: 30°F , -1°C
Humidity: 38%
Barometer: 30.26 inHg , 1024.7 hPa
Clouds: Overcast
Visibility: 10 miles , 16 km
Cloud details: Overcast 9000 ft
2022/12/01 23:53 KTYR 012353Z AUTO 14004KT 10SM OVC090 13/M01 A3026 RMK AO2 SLP246 T01331006 10150 20122 55013
KRFI - Henderson Rusk C, Texas, USA
Distance from station: ESE 25mi, 40km
Updated: Thu, 01-Dec-2022 5:55pm CST
Overcast
Overcast
 Wind from calm
Wind: Calm
Temperature: 57°F , 14°C
Dew Point: 19°F , -7°C
Humidity: 23%
Barometer: 30.27 inHg , 1025.1 hPa
Clouds: Overcast
Visibility: 10 miles , 16 km
Cloud details: Overcast 9500 ft
2022/12/01 23:55 KRFI 012355Z AUTO 00000KT 10SM OVC095 14/M07 A3027 RMK AO2 T01401069 10168 20125
 
KJSO - Jacksonville, Texas, USA
Distance from station: S 30mi, 48km
Updated: Thu, 01-Dec-2022 5:55pm CST
Overcast
Overcast
 Wind from calm
Wind: Calm
Temperature: 54°F , 12°C
Dew Point: 30°F , -1°C
Humidity: 41%
Barometer: 30.28 inHg , 1025.4 hPa
Clouds: Overcast
Visibility: 10 miles , 16 km
Cloud details: Overcast 9000 ft
2022/12/01 23:55 KJSO 012355Z AUTO 00000KT 10SM OVC090 12/M01 A3028 RMK AO2 T01201015 10148 20110 TSNO
KGGG - Longview, Texas, USA
Distance from station: ENE 31mi, 50km
Updated: Thu, 01-Dec-2022 5:53pm CST
Overcast
Overcast
 Wind from ESE
Wind: ESE 7 mph , 11 km/h
Temperature: 55°F , 13°C
Dew Point: 27°F , -3°C
Humidity: 33%
Barometer: 30.26 inHg , 1024.7 hPa
Clouds: Overcast
Visibility: 10 miles , 16 km
Cloud details: Overcast 10000 ft
2022/12/01 23:53 KGGG 012353Z 12006KT 10SM OVC100 13/M03 A3026 RMK AO2 SLP251 T01281028 10150 20111 56016
 
KJXI - Gilmer Muni, Texas, USA
Distance from station: NNE 33mi, 53km
Updated: Thu, 01-Dec-2022 6:15pm CST
Partly Cloudy
Partly Cloudy
 Wind from calm
Wind: Calm
Temperature: 54°F , 12°C
Dew Point: 25°F , -4°C
Humidity: 33%
Barometer: 30.28 inHg , 1025.4 hPa
Clouds: Partly Cloudy
Visibility: 10 miles , 16 km
Cloud details: Partly Cloudy 10000 ft
2022/12/02 00:15 KJXI 020015Z AUTO 00000KT 10SM SCT100 12/M04 A3028 RMK AO2 T01231036
KJDD - Mineola/Quitman, Texas, USA
Distance from station: NNW 35mi, 56km
Updated: Thu, 01-Dec-2022 5:55pm CST
Overcast
Overcast
 Wind from calm
Wind: Calm
Temperature: 54°F , 12°C
Dew Point: 28°F , -2°C
Humidity: 38%
Barometer: 30.27 inHg , 1025.1 hPa
Clouds: Overcast
Visibility: 10 miles , 16 km
Cloud details: Mostly Cloudy 8000 ft
Overcast 10000 ft
2022/12/01 23:55 KJDD 012355Z AUTO 00000KT 10SM BKN080 OVC100 12/M02 A3027 RMK AO2
 
KF44 - Athens, Texas, USA
Distance from station: WSW 36mi, 57km
Updated: Thu, 01-Dec-2022 5:55pm CST
Overcast
Overcast
 Wind from calm
Wind: Calm
Temperature: 55°F , 13°C
Dew Point: 30°F , -1°C
Humidity: 38%
Barometer: 30.25 inHg , 1024.4 hPa
Clouds: Overcast
Visibility: 10 miles , 16 km
Cloud details: Overcast 8000 ft
2022/12/01 23:55 KF44 012355Z AUTO 00000KT 10SM OVC080 13/M01 A3025 RMK AO2
KPSN - Palestine Muni, Texas, USA
Distance from station: SW 44mi, 71km
Updated: Thu, 01-Dec-2022 5:55pm CST
Overcast
Overcast
 Wind from calm
Wind: Calm
Temperature: 57°F , 14°C
Dew Point: 30°F , -1°C
Humidity: 36%
Barometer: 30.25 inHg , 1024.4 hPa
Clouds: Overcast
Visibility: 10 miles , 16 km
Cloud details: Overcast 8500 ft
2022/12/01 23:55 KPSN 012355Z AUTO 00000KT 10SM OVC085 14/M01 A3025 RMK AO2
 
KASL - Marshall, Texas, USA
Distance from station: ENE 57mi, 92km
Updated: Thu, 01-Dec-2022 5:55pm CST
Mostly Cloudy
Mostly Cloudy
 Wind from varies
Wind: varies 3 mph , 6 km/h
Temperature: 54°F , 12°C
Dew Point: 28°F , -2°C
Humidity: 38%
Barometer: 30.26 inHg , 1024.7 hPa
Clouds: Mostly Cloudy
Visibility: 10 miles , 16 km
Cloud details: Mostly Cloudy 10000 ft
2022/12/01 23:55 KASL 012355Z AUTO VRB03KT 10SM BKN100 12/M02 A3026 RMK AO2 T01151018 $
KOSA - Mount Pleasant, Texas, USA
Distance from station: NNE 58mi, 93km
Updated: Thu, 01-Dec-2022 5:55pm CST
Overcast
Overcast
 Wind from ESE
Wind: ESE 8 mph , 13 km/h
Temperature: 52°F , 11°C
Dew Point: 27°F , -3°C
Humidity: 38%
Barometer: 30.27 inHg , 1025.1 hPa
Clouds: Overcast
Visibility: 10 miles , 16 km
Cloud details: Overcast 9000 ft
2022/12/01 23:55 KOSA 012355Z AUTO 11007KT 10SM OVC090 11/M03 A3027 RMK AO2 T01151030 10135 20107 401351016
 
KOCH - Nacogdoches, Texas, USA
Distance from station: SSE 59mi, 95km
Updated: Thu, 01-Dec-2022 5:56pm CST
Few Clouds
Few Clouds
 Wind from ESE
Wind: ESE 5 mph , 7 km/h
Temperature: 52°F , 11°C
Dew Point: 34°F , 1°C
Humidity: 50%
Barometer: 30.29 inHg , 1025.7 hPa
Clouds: Few Clouds
Visibility: 10 miles , 16 km
Cloud details: Few Clouds 9500 ft
2022/12/01 23:56 KOCH 012356Z AUTO 11004KT 10SM FEW095 11/01 A3029 RMK AO2 SLP261 T01060006 10156 20106 58009 PWINO
KSLR - Sulphur Springs, Texas, USA
Distance from station: NNW 64mi, 103km
Updated: Thu, 01-Dec-2022 5:55pm CST
Overcast
Overcast
 Wind from ESE
Wind: ESE 5 mph , 7 km/h
Temperature: 54°F , 12°C
Dew Point: 28°F , -2°C
Humidity: 38%
Barometer: 30.29 inHg , 1025.7 hPa
Clouds: Overcast
Visibility: 10 miles , 16 km
Cloud details: Overcast 7000 ft
2022/12/01 23:55 KSLR 012355Z AUTO 12004KT 10SM OVC070 12/M02 A3029 RMK AO2 T01151025 10130 20108
 
KTRL - Terrell, Texas, USA
Distance from station: WNW 66mi, 107km
Updated: Thu, 01-Dec-2022 5:53pm CST
Overcast
Overcast
 Wind from SE
Wind: SE 3 mph , 6 km/h
Temperature: 54°F , 12°C
Dew Point: 28°F , -2°C
Humidity: 38%
Barometer: 30.25 inHg , 1024.4 hPa
Clouds: Overcast
Visibility: 10 miles , 16 km
Cloud details: Mostly Cloudy 6500 ft
Overcast 8500 ft
2022/12/01 23:53 KTRL 012353Z AUTO 14003KT 10SM BKN065 OVC085 12/M02 A3025 RMK AO2 SLP245 T01171022 10128 20111 56007
KCRS - Corsicana, Texas, USA
Distance from station: WSW 70mi, 113km
Updated: Thu, 01-Dec-2022 5:53pm CST
Overcast
Overcast
 Wind from ESE
Wind: ESE 6 mph , 9 km/h
Temperature: 55°F , 13°C
Dew Point: 32°F , 0°C
Humidity: 41%
Barometer: 30.26 inHg , 1024.7 hPa
Clouds: Overcast
Visibility: 10 miles , 16 km
Cloud details: Few Clouds 2500 ft
Overcast 8000 ft
2022/12/01 23:53 KCRS 012353Z AUTO 12005KT 10SM FEW025 OVC080 13/00 A3026 RMK AO2 SLP247 T01330000 10144 20111 58008
 
KGVT - Greenville/Major, Texas, USA
Distance from station: NW 72mi, 115km
Updated: Thu, 01-Dec-2022 5:55pm CST
Overcast
Overcast
 Wind from SE
Wind: SE 5 mph , 7 km/h
Temperature: 52°F , 11°C
Dew Point: 30°F , -1°C
Humidity: 44%
Barometer: 30.26 inHg , 1024.7 hPa
Clouds: Overcast
Visibility: 10 miles , 16 km
Cloud details: Overcast 7000 ft
2022/12/01 23:55 KGVT 012355Z AUTO 13004KT 10SM OVC070 11/M01 A3026 RMK AO2 TSNO T01091015 10118 20104 401181013

Metar display script from Saratoga-Weather.org